Time;durP1;ratioP1;P1;durP2;ratioP2;P2;SDS_P1;SDS_P2;PMS_P1;PMS_P2;Temp;Humidity;BMP_temperature;BMP_pressure;BME280_temperature;BME280_humidity;BME280_pressure;Samples;Min_cycle;Max_cycle;Signal;HPM_P1;HPM_P2
2023/06/06 00:00:13;;;;;;;1.90;1.80;;;18.00;61.30;;;;;;5005382;28;20108;-62
2023/06/06 00:02:43;;;;;;;1.98;1.88;;;18.00;61.30;;;;;;5004651;28;20519;-62
2023/06/06 00:05:13;;;;;;;1.65;1.55;;;17.90;61.30;;;;;;4999403;28;20667;-62
2023/06/06 00:07:43;;;;;;;2.67;1.80;;;18.00;61.30;;;;;;4981607;28;20615;-62
2023/06/06 00:10:19;;;;;;;1.60;1.50;;;17.90;61.30;;;;;;5003646;28;20251;-62
2023/06/06 00:12:46;;;;;;;1.45;1.35;;;17.90;61.20;;;;;;5005209;28;20401;-62
2023/06/06 00:15:13;;;;;;;4.40;2.05;;;17.90;61.00;;;;;;5002992;28;20545;-61
2023/06/06 00:17:41;;;;;;;3.72;1.70;;;17.90;61.20;;;;;;5005199;28;20041;-62
2023/06/06 00:20:07;;;;;;;3.33;1.52;;;17.90;61.00;;;;;;5004156;28;20330;-62
2023/06/06 00:22:32;;;;;;;5.78;1.90;;;17.90;61.10;;;;;;5003412;28;20484;-63
2023/06/06 00:24:58;;;;;;;1.88;1.77;;;17.80;61.20;;;;;;5004789;28;20176;-62
2023/06/06 00:27:24;;;;;;;1.67;1.58;;;17.80;61.30;;;;;;5004333;28;20069;-62
2023/06/06 00:29:49;;;;;;;1.42;1.33;;;17.70;61.40;;;;;;5005165;28;20505;-62
2023/06/06 00:32:15;;;;;;;2.03;1.60;;;17.60;61.50;;;;;;5002620;28;20057;-62
2023/06/06 00:34:40;;;;;;;2.65;1.60;;;17.50;61.80;;;;;;5003999;28;20150;-62
2023/06/06 00:37:06;;;;;;;1.77;1.50;;;17.50;62.10;;;;;;5003835;28;20050;-63
2023/06/06 00:39:32;;;;;;;2.85;1.70;;;17.40;62.20;;;;;;5003188;28;20493;-62
2023/06/06 00:41:57;;;;;;;2.92;1.90;;;17.30;62.20;;;;;;5002878;28;20046;-62
2023/06/06 00:44:23;;;;;;;3.03;1.75;;;17.30;62.60;;;;;;5000969;28;20041;-61
2023/06/06 00:46:49;;;;;;;1.80;1.70;;;17.20;62.70;;;;;;5002207;28;20052;-62
2023/06/06 00:49:16;;;;;;;1.98;1.80;;;17.20;62.90;;;;;;5002160;28;20033;-62
2023/06/06 00:51:43;;;;;;;2.15;1.80;;;17.10;62.90;;;;;;5001667;28;20072;-62
2023/06/06 00:54:12;;;;;;;2.10;2.00;;;17.10;63.10;;;;;;5005042;28;20612;-62
2023/06/06 00:56:41;;;;;;;2.25;2.10;;;17.00;63.40;;;;;;5004567;28;20046;-62
2023/06/06 00:59:07;;;;;;;1.98;1.73;;;17.00;63.40;;;;;;5002178;28;20145;-62
2023/06/06 01:01:36;;;;;;;2.40;2.17;;;16.90;63.10;;;;;;5000421;28;20045;-62
2023/06/06 01:04:07;;;;;;;2.40;1.90;;;17.00;63.30;;;;;;5004719;28;20501;-62
2023/06/06 01:06:33;;;;;;;2.58;2.08;;;16.90;63.30;;;;;;5003610;28;20071;-62
2023/06/06 01:09:01;;;;;;;2.30;2.10;;;16.80;64.30;;;;;;5000603;28;20068;-62
2023/06/06 01:11:45;;;;;;;2.40;2.03;;;16.80;63.70;;;;;;5001960;28;20030;-61
2023/06/06 01:14:18;;;;;;;2.22;2.00;;;16.70;64.80;;;;;;5001377;28;20042;-62
2023/06/06 01:16:52;;;;;;;2.35;2.15;;;16.70;64.50;;;;;;5002696;28;20042;-62
2023/06/06 01:19:20;;;;;;;2.25;2.05;;;16.70;64.40;;;;;;5003145;28;20045;-62
2023/06/06 01:21:46;;;;;;;2.10;2.00;;;16.60;64.20;;;;;;5000863;28;20508;-61
2023/06/06 01:24:12;;;;;;;2.70;2.42;;;16.50;65.10;;;;;;5001234;28;20034;-62
2023/06/06 01:26:38;;;;;;;2.88;2.13;;;16.50;64.50;;;;;;5002028;28;20045;-61
2023/06/06 01:29:04;;;;;;;2.22;2.10;;;16.50;64.70;;;;;;5001291;28;20034;-62
2023/06/06 01:31:36;;;;;;;2.38;2.05;;;16.50;65.00;;;;;;5001150;28;20046;-62
2023/06/06 01:34:08;;;;;;;2.22;2.08;;;16.40;65.40;;;;;;5001623;28;20051;-62
2023/06/06 01:37:03;;;;;;;2.50;2.00;;;16.40;65.40;;;;;;5000150;28;20314;-60
2023/06/06 01:39:30;;;;;;;2.47;2.10;;;16.40;66.40;;;;;;5000352;28;20044;-62
2023/06/06 01:41:58;;;;;;;2.45;2.25;;;16.40;64.90;;;;;;5003142;28;20040;-62
2023/06/06 01:44:25;;;;;;;4.35;2.35;;;16.50;65.10;;;;;;5001053;28;20037;-62
2023/06/06 01:46:53;;;;;;;2.40;2.20;;;16.40;65.00;;;;;;5001169;28;20042;-62
2023/06/06 01:49:19;;;;;;;2.10;1.90;;;16.40;65.20;;;;;;5000167;28;20042;-62
2023/06/06 01:51:44;;;;;;;2.42;2.22;;;16.40;65.20;;;;;;4999667;28;20049;-63
2023/06/06 01:54:10;;;;;;;2.58;2.38;;;16.40;65.30;;;;;;5000500;28;20068;-62
2023/06/06 01:56:35;;;;;;;2.55;2.35;;;16.30;65.50;;;;;;5001405;28;20045;-63
2023/06/06 01:59:01;;;;;;;2.70;2.50;;;16.30;65.60;;;;;;5001817;28;20041;-62
2023/06/06 02:01:28;;;;;;;2.30;2.00;;;16.30;65.80;;;;;;5000055;28;20347;-61
2023/06/06 02:03:54;;;;;;;2.42;2.22;;;16.20;65.70;;;;;;5000495;28;20505;-61
2023/06/06 02:06:20;;;;;;;2.53;2.33;;;16.20;65.70;;;;;;5001338;28;20045;-62
2023/06/06 02:08:47;;;;;;;3.17;2.15;;;16.10;66.00;;;;;;4999648;28;20038;-62
2023/06/06 02:11:13;;;;;;;2.40;2.20;;;16.10;66.10;;;;;;4999735;28;20022;-62
2023/06/06 02:13:39;;;;;;;2.33;2.20;;;16.00;66.20;;;;;;5003290;28;20038;-62
2023/06/06 02:16:05;;;;;;;2.78;2.58;;;16.00;66.30;;;;;;5001059;28;20040;-62
2023/06/06 02:18:30;;;;;;;2.58;2.38;;;15.90;66.40;;;;;;4999925;28;20045;-62
2023/06/06 02:20:56;;;;;;;2.58;2.38;;;15.90;66.70;;;;;;5000324;28;20106;-62
2023/06/06 02:23:22;;;;;;;2.55;2.35;;;15.80;66.70;;;;;;4999607;28;20041;-61
2023/06/06 02:25:48;;;;;;;2.53;2.25;;;15.80;66.60;;;;;;5000652;28;20037;-62
2023/06/06 02:28:15;;;;;;;2.88;2.67;;;15.80;66.70;;;;;;4997656;28;20030;-62
2023/06/06 02:30:41;;;;;;;9.85;2.70;;;15.70;67.00;;;;;;4998472;28;20406;-62
2023/06/06 02:33:07;;;;;;;3.38;2.70;;;15.70;67.30;;;;;;5001557;28;20022;-63
2023/06/06 02:35:33;;;;;;;2.72;2.53;;;15.70;67.30;;;;;;5000544;28;20505;-63
2023/06/06 02:37:59;;;;;;;2.72;2.53;;;15.60;67.40;;;;;;5000950;28;20044;-62
2023/06/06 02:40:25;;;;;;;3.15;2.85;;;15.50;67.50;;;;;;5000242;28;20049;-62
2023/06/06 02:42:51;;;;;;;3.85;2.75;;;15.50;67.70;;;;;;5000189;28;20389;-62
2023/06/06 02:45:16;;;;;;;4.15;2.90;;;15.50;67.90;;;;;;5000731;28;20041;-62
2023/06/06 02:47:42;;;;;;;5.15;3.25;;;15.40;68.00;;;;;;5000202;28;20053;-62
2023/06/06 02:50:08;;;;;;;3.10;2.80;;;15.40;68.10;;;;;;4998459;28;20258;-62
2023/06/06 02:52:35;;;;;;;2.92;2.60;;;15.30;68.00;;;;;;4999457;28;20129;-63
2023/06/06 02:55:01;;;;;;;3.17;2.88;;;15.30;68.00;;;;;;5002849;28;20065;-62
2023/06/06 02:57:27;;;;;;;2.85;2.65;;;15.30;68.20;;;;;;5002745;28;20050;-62
2023/06/06 02:59:53;;;;;;;3.17;2.88;;;15.30;68.30;;;;;;5002076;28;20037;-62
2023/06/06 03:02:19;;;;;;;3.85;3.55;;;15.20;68.10;;;;;;5001069;28;20413;-62
2023/06/06 03:04:45;;;;;;;5.78;3.08;;;15.30;68.30;;;;;;5000493;28;20034;-63
2023/06/06 03:07:12;;;;;;;5.25;3.10;;;15.20;68.30;;;;;;5003064;28;20084;-61
2023/06/06 03:09:38;;;;;;;4.70;3.22;;;15.20;68.30;;;;;;4997429;28;20030;-62
2023/06/06 03:12:04;;;;;;;3.50;3.20;;;15.20;68.30;;;;;;5002203;28;20056;-62
2023/06/06 03:14:30;;;;;;;4.97;3.33;;;15.10;68.30;;;;;;5000279;28;20069;-62
2023/06/06 03:16:56;;;;;;;4.22;3.10;;;15.10;68.50;;;;;;5001227;28;20034;-62
2023/06/06 03:19:25;;;;;;;3.55;3.25;;;15.10;68.60;;;;;;5000677;28;20049;-62
2023/06/06 03:21:51;;;;;;;3.97;3.47;;;15.00;68.70;;;;;;4999607;28;20034;-62
2023/06/06 03:24:18;;;;;;;4.50;3.53;;;15.00;68.50;;;;;;5001318;28;20040;-62
2023/06/06 03:26:46;;;;;;;3.63;3.33;;;15.00;68.50;;;;;;5003036;28;20065;-62
2023/06/06 03:29:12;;;;;;;3.55;3.25;;;15.00;68.60;;;;;;4998946;28;20041;-62
2023/06/06 03:31:38;;;;;;;3.95;3.63;;;15.00;68.70;;;;;;4999595;28;20040;-62
2023/06/06 03:34:04;;;;;;;3.80;3.30;;;14.90;68.80;;;;;;5000606;28;20041;-63
2023/06/06 03:36:32;;;;;;;3.63;3.25;;;14.90;69.00;;;;;;5000389;28;20505;-62
2023/06/06 03:39:02;;;;;;;3.40;3.10;;;14.80;69.00;;;;;;4998956;28;20505;-62
2023/06/06 03:41:28;;;;;;;3.80;3.47;;;14.80;69.30;;;;;;4999498;28;20034;-62
2023/06/06 03:43:54;;;;;;;3.35;3.10;;;14.70;69.20;;;;;;5000331;28;20076;-63
2023/06/06 03:46:20;;;;;;;3.90;3.50;;;14.70;69.40;;;;;;5005411;28;20069;-62
2023/06/06 03:48:45;;;;;;;4.00;3.65;;;14.60;69.60;;;;;;4985469;28;20498;-62
2023/06/06 03:51:11;;;;;;;3.78;3.47;;;14.60;69.70;;;;;;5003157;28;20044;-62
2023/06/06 03:53:37;;;;;;;3.50;3.20;;;14.60;70.00;;;;;;5003765;28;20029;-62
2023/06/06 03:56:04;;;;;;;4.43;3.65;;;14.60;70.10;;;;;;5004908;28;20069;-62
2023/06/06 03:58:30;;;;;;;3.55;3.25;;;14.50;70.30;;;;;;5004735;28;20460;-62
2023/06/06 04:00:58;;;;;;;3.05;2.85;;;14.50;70.30;;;;;;5004822;28;20383;-62
2023/06/06 04:03:25;;;;;;;4.95;3.72;;;14.50;70.40;;;;;;5002537;28;20500;-62
2023/06/06 04:05:50;;;;;;;3.95;3.53;;;14.50;70.40;;;;;;5004356;28;20037;-62
2023/06/06 04:08:16;;;;;;;5.10;3.60;;;14.50;70.40;;;;;;5005917;28;20038;-62
2023/06/06 04:10:42;;;;;;;3.85;3.55;;;14.60;70.20;;;;;;5003645;28;20096;-60
2023/06/06 04:13:07;;;;;;;3.50;3.20;;;14.60;70.20;;;;;;5004871;28;20124;-62
2023/06/06 04:15:33;;;;;;;3.65;3.25;;;14.60;70.20;;;;;;5003667;28;20484;-63
2023/06/06 04:17:59;;;;;;;4.25;3.47;;;14.60;70.20;;;;;;4986163;28;20048;-63
2023/06/06 04:20:26;;;;;;;5.00;3.85;;;14.60;70.40;;;;;;5004130;28;20042;-62
2023/06/06 04:22:52;;;;;;;3.50;3.20;;;14.60;70.60;;;;;;4986292;28;20037;-62
2023/06/06 04:25:18;;;;;;;3.78;3.38;;;14.60;70.70;;;;;;5006464;28;20129;-61
2023/06/06 04:27:44;;;;;;;3.70;3.40;;;14.60;70.70;;;;;;5005790;28;20047;-61
2023/06/06 04:30:12;;;;;;;3.65;3.35;;;14.60;70.70;;;;;;5002091;28;20053;-62
2023/06/06 04:32:39;;;;;;;4.40;3.53;;;14.60;70.90;;;;;;5000716;28;20045;-62
2023/06/06 04:35:06;;;;;;;4.18;3.60;;;14.60;70.80;;;;;;5004653;28;20096;-61
2023/06/06 04:37:33;;;;;;;4.28;3.88;;;14.60;70.90;;;;;;5005674;28;20088;-62
2023/06/06 04:40:00;;;;;;;4.38;3.42;;;14.60;71.00;;;;;;5003267;28;20061;-62
2023/06/06 04:42:32;;;;;;;3.65;3.35;;;14.70;71.10;;;;;;5003448;28;21237;-61
2023/06/06 04:45:04;;;;;;;6.15;3.58;;;14.70;71.00;;;;;;5003113;28;20084;-62
2023/06/06 04:47:31;;;;;;;5.63;4.05;;;14.80;70.90;;;;;;5004881;28;20484;-60
2023/06/06 04:49:58;;;;;;;3.92;3.53;;;14.80;71.00;;;;;;5004138;28;20517;-62
2023/06/06 04:52:24;;;;;;;4.20;3.63;;;14.90;70.90;;;;;;5002176;28;20097;-62
2023/06/06 04:54:51;;;;;;;5.70;4.00;;;14.90;71.10;;;;;;5004358;28;20041;-62
2023/06/06 04:57:17;;;;;;;4.15;3.78;;;15.00;71.20;;;;;;5002207;28;20033;-62
2023/06/06 04:59:53;;;;;;;5.63;4.03;;;15.00;71.20;;;;;;5002866;28;20068;-62
2023/06/06 05:02:21;;;;;;;4.30;3.90;;;15.10;71.40;;;;;;5004833;28;20050;-62
2023/06/06 05:04:54;;;;;;;5.38;4.25;;;15.10;71.40;;;;;;5004274;28;20042;-62
2023/06/06 05:07:24;;;;;;;4.18;3.83;;;15.10;72.00;;;;;;5002287;28;20050;-62
2023/06/06 05:09:53;;;;;;;4.32;3.83;;;15.20;71.80;;;;;;5002429;28;20107;-62
2023/06/06 05:12:22;;;;;;;4.38;3.92;;;15.30;71.90;;;;;;5001886;28;20070;-62
2023/06/06 05:14:48;;;;;;;4.43;4.07;;;15.30;71.90;;;;;;5001247;28;20042;-61
2023/06/06 05:17:20;;;;;;;4.55;3.83;;;15.40;72.10;;;;;;5002485;28;20422;-61
2023/06/06 05:19:46;;;;;;;4.65;4.13;;;15.40;72.10;;;;;;5004445;28;20571;-62
2023/06/06 05:22:13;;;;;;;4.18;3.75;;;15.50;72.20;;;;;;5001771;28;20042;-62
2023/06/06 05:24:38;;;;;;;5.25;4.20;;;15.50;72.10;;;;;;5003340;28;20472;-61
2023/06/06 05:27:05;;;;;;;5.00;4.00;;;15.60;72.10;;;;;;5003975;28;20034;-62
2023/06/06 05:29:31;;;;;;;4.22;3.92;;;15.60;72.00;;;;;;5003724;28;20501;-62
2023/06/06 05:31:56;;;;;;;16.38;4.40;;;15.70;72.30;;;;;;5001475;28;20041;-61
2023/06/06 05:34:22;;;;;;;4.88;4.05;;;15.80;72.10;;;;;;5003007;28;20045;-62
2023/06/06 05:36:47;;;;;;;4.45;4.05;;;15.80;72.10;;;;;;4999961;28;20104;-62
2023/06/06 05:39:14;;;;;;;5.07;4.15;;;15.90;72.10;;;;;;5001070;28;20042;-62
2023/06/06 05:41:39;;;;;;;4.80;3.70;;;15.90;72.00;;;;;;4983574;28;20033;-62
2023/06/06 05:44:05;;;;;;;5.88;4.30;;;16.00;71.80;;;;;;5001276;28;20405;-62
2023/06/06 05:46:30;;;;;;;4.35;3.95;;;16.10;71.80;;;;;;4999766;28;20038;-62
2023/06/06 05:48:56;;;;;;;5.07;3.90;;;16.20;71.80;;;;;;5002818;28;20049;-62
2023/06/06 05:51:21;;;;;;;4.13;3.72;;;16.20;71.50;;;;;;4999653;28;20095;-62
2023/06/06 05:53:47;;;;;;;8.27;4.40;;;16.30;71.60;;;;;;5001755;28;20048;-62
2023/06/06 05:56:14;;;;;;;5.60;3.95;;;16.40;71.20;;;;;;4999716;28;20077;-60
2023/06/06 05:58:40;;;;;;;4.63;3.90;;;16.50;71.00;;;;;;5000879;28;20033;-62
2023/06/06 06:01:06;;;;;;;4.20;3.80;;;16.50;70.70;;;;;;5003749;28;20064;-62
2023/06/06 06:03:33;;;;;;;4.28;3.83;;;16.60;70.60;;;;;;5001033;28;20521;-62
2023/06/06 06:06:03;;;;;;;5.07;3.80;;;16.70;70.50;;;;;;5002819;28;20034;-62
2023/06/06 06:08:29;;;;;;;6.13;4.13;;;16.80;70.40;;;;;;4979993;28;20426;-61
2023/06/06 06:10:55;;;;;;;4.82;4.20;;;16.80;70.20;;;;;;5001842;28;20022;-62
2023/06/06 06:13:21;;;;;;;4.13;3.70;;;16.90;70.40;;;;;;5002459;28;20030;-62
2023/06/06 06:15:47;;;;;;;7.60;3.97;;;16.90;70.00;;;;;;5001137;28;20045;-61
2023/06/06 06:18:13;;;;;;;6.38;4.13;;;17.00;70.00;;;;;;5000929;28;20401;-62
2023/06/06 06:20:38;;;;;;;4.47;4.05;;;17.10;69.90;;;;;;5002445;28;20045;-61
2023/06/06 06:23:04;;;;;;;4.13;3.75;;;17.20;70.60;;;;;;5000909;28;20040;-62
2023/06/06 06:25:29;;;;;;;4.00;3.63;;;17.20;69.50;;;;;;5003479;28;20777;-61
2023/06/06 06:27:55;;;;;;;3.78;3.38;;;17.30;69.30;;;;;;5001771;28;20037;-62
2023/06/06 06:30:21;;;;;;;4.10;3.70;;;17.40;69.10;;;;;;5000250;28;20041;-62
2023/06/06 06:32:47;;;;;;;4.18;3.78;;;17.50;69.00;;;;;;5000694;28;20465;-62
2023/06/06 06:35:13;;;;;;;5.40;3.25;;;17.50;69.00;;;;;;5002856;28;20156;-60
2023/06/06 06:37:40;;;;;;;4.28;3.78;;;17.60;68.60;;;;;;4999858;28;20092;-62
2023/06/06 06:40:12;;;;;;;3.42;3.15;;;17.70;68.50;;;;;;4998039;28;20038;-62
2023/06/06 06:42:44;;;;;;;3.67;3.38;;;17.80;68.40;;;;;;4985395;28;20068;-62
2023/06/06 06:45:12;;;;;;;3.53;3.22;;;17.80;68.00;;;;;;4994433;28;20432;-61
2023/06/06 06:47:39;;;;;;;3.45;3.15;;;17.90;67.90;;;;;;4993773;28;20045;-64
2023/06/06 06:50:05;;;;;;;6.10;3.65;;;18.00;67.60;;;;;;4997190;28;20052;-63
2023/06/06 06:52:35;;;;;;;5.85;3.47;;;18.00;67.20;;;;;;4997938;28;20115;-62
2023/06/06 06:55:01;;;;;;;3.65;3.33;;;18.10;66.90;;;;;;4996591;28;20077;-62
2023/06/06 06:57:28;;;;;;;3.47;3.00;;;18.10;66.70;;;;;;4993173;28;20111;-62
2023/06/06 07:00:14;;;;;;;3.78;3.45;;;18.20;66.70;;;;;;4995833;28;20153;-62
2023/06/06 07:02:42;;;;;;;4.05;3.65;;;18.20;66.60;;;;;;4994574;28;20041;-62
2023/06/06 07:05:09;;;;;;;3.55;3.25;;;18.30;66.20;;;;;;4998953;28;20034;-62
2023/06/06 07:07:42;;;;;;;4.10;3.70;;;18.30;66.30;;;;;;4997616;28;20025;-62
2023/06/06 07:10:08;;;;;;;3.70;3.33;;;18.30;66.20;;;;;;4990658;28;20042;-62
2023/06/06 07:12:33;;;;;;;4.07;3.67;;;18.30;66.30;;;;;;4991865;28;20041;-62
2023/06/06 07:14:59;;;;;;;3.70;3.40;;;18.30;66.40;;;;;;4997037;28;20060;-62
2023/06/06 07:17:26;;;;;;;3.60;3.30;;;18.50;66.60;;;;;;4997731;28;20165;-62
2023/06/06 07:19:51;;;;;;;3.10;2.80;;;18.60;66.90;;;;;;5002276;28;20038;-62
2023/06/06 07:22:17;;;;;;;3.92;2.90;;;18.60;66.60;;;;;;4996210;28;20045;-62
2023/06/06 07:24:43;;;;;;;3.63;3.15;;;18.70;66.40;;;;;;5002432;28;20034;-62
2023/06/06 07:27:09;;;;;;;3.67;3.38;;;18.80;65.80;;;;;;5003149;28;20111;-62
2023/06/06 07:29:34;;;;;;;3.70;3.30;;;18.90;65.40;;;;;;5002759;28;20096;-62
2023/06/06 07:32:00;;;;;;;4.22;3.25;;;18.90;65.20;;;;;;5001108;28;22028;-62
2023/06/06 07:34:26;;;;;;;3.88;3.15;;;18.90;65.00;;;;;;4999207;28;20065;-62
2023/06/06 07:36:52;;;;;;;3.80;3.10;;;19.00;64.90;;;;;;4991737;28;20128;-63
2023/06/06 07:39:18;;;;;;;4.28;2.88;;;19.00;64.80;;;;;;5002140;28;20456;-61
2023/06/06 07:41:43;;;;;;;5.85;3.50;;;19.00;65.00;;;;;;4999892;28;20034;-62
2023/06/06 07:44:09;;;;;;;3.10;2.80;;;19.10;64.50;;;;;;4995063;28;20050;-62
2023/06/06 07:46:35;;;;;;;3.08;2.78;;;19.20;64.50;;;;;;5002031;28;20092;-61
2023/06/06 07:49:00;;;;;;;3.17;2.90;;;19.30;64.50;;;;;;4999624;28;20041;-62
2023/06/06 07:51:26;;;;;;;4.72;3.28;;;19.40;64.40;;;;;;5000873;28;20044;-62
2023/06/06 07:53:52;;;;;;;3.15;2.85;;;19.40;65.20;;;;;;5000861;28;21003;-61
2023/06/06 07:56:18;;;;;;;2.90;2.60;;;19.60;63.60;;;;;;4979773;28;20041;-62
2023/06/06 07:58:52;;;;;;;4.22;2.88;;;19.60;63.20;;;;;;5001120;28;20604;-62
2023/06/06 08:01:20;;;;;;;3.42;2.55;;;19.70;62.90;;;;;;5000285;28;20058;-63
2023/06/06 08:03:49;;;;;;;2.72;2.30;;;19.80;62.90;;;;;;5004040;28;20314;-62
2023/06/06 08:06:16;;;;;;;2.70;2.50;;;19.90;62.40;;;;;;5004832;28;20124;-63
2023/06/06 08:08:41;;;;;;;2.90;2.65;;;20.10;62.20;;;;;;5005486;28;20061;-63
2023/06/06 08:11:07;;;;;;;2.90;2.70;;;20.10;61.90;;;;;;4998270;28;20113;-63
2023/06/06 08:13:33;;;;;;;3.40;2.80;;;20.30;61.20;;;;;;4999406;28;20174;-63
2023/06/06 08:15:58;;;;;;;2.60;2.20;;;20.40;61.10;;;;;;5002576;28;20075;-61
2023/06/06 08:18:24;;;;;;;2.53;2.30;;;20.40;60.30;;;;;;5002300;28;20034;-63
2023/06/06 08:20:49;;;;;;;3.40;2.20;;;20.50;59.50;;;;;;5002394;28;20724;-62
2023/06/06 08:23:15;;;;;;;2.50;2.30;;;20.60;59.00;;;;;;5000345;28;20026;-62
2023/06/06 08:25:40;;;;;;;2.97;2.30;;;20.70;58.80;;;;;;4997914;28;20030;-64
2023/06/06 08:28:06;;;;;;;2.53;2.33;;;20.80;58.50;;;;;;5003933;28;20038;-63
2023/06/06 08:30:32;;;;;;;3.80;2.30;;;20.80;58.20;;;;;;4997831;28;20037;-63
2023/06/06 08:32:57;;;;;;;2.25;2.05;;;20.90;58.20;;;;;;5002463;28;20049;-63
2023/06/06 08:35:24;;;;;;;3.60;2.28;;;21.00;58.10;;;;;;4998739;28;20620;-62
2023/06/06 08:37:50;;;;;;;2.47;2.20;;;21.10;57.80;;;;;;4999042;28;20548;-63
2023/06/06 08:40:16;;;;;;;2.58;2.05;;;21.20;57.30;;;;;;5003287;28;20033;-64
2023/06/06 08:42:50;;;;;;;2.33;2.13;;;21.40;57.00;;;;;;5000387;28;20060;-63
2023/06/06 08:45:20;;;;;;;2.72;2.03;;;21.50;56.60;;;;;;5002745;28;20430;-63
2023/06/06 08:47:47;;;;;;;2.38;2.17;;;21.50;55.60;;;;;;5003058;28;20057;-63
2023/06/06 08:50:13;;;;;;;3.20;2.13;;;21.60;56.00;;;;;;4996315;28;20037;-62
2023/06/06 08:52:41;;;;;;;2.40;2.20;;;21.70;56.30;;;;;;5001056;28;20041;-62
2023/06/06 08:55:07;;;;;;;2.50;2.30;;;21.80;56.20;;;;;;4998652;28;20030;-63
2023/06/06 08:57:34;;;;;;;4.35;2.30;;;21.90;56.40;;;;;;4996832;28;20068;-62
2023/06/06 09:00:11;;;;;;;2.58;2.20;;;22.00;55.50;;;;;;5000464;28;20748;-62
2023/06/06 09:02:40;;;;;;;2.38;2.17;;;22.00;55.10;;;;;;5004084;28;20060;-61
2023/06/06 09:05:07;;;;;;;4.53;2.13;;;22.00;55.40;;;;;;5003492;28;20049;-61
2023/06/06 09:07:33;;;;;;;3.10;2.50;;;22.10;55.10;;;;;;5003575;28;20917;-61
2023/06/06 09:09:59;;;;;;;2.50;2.30;;;22.20;55.00;;;;;;5005047;28;20506;-62
2023/06/06 09:12:25;;;;;;;2.35;2.15;;;22.30;54.90;;;;;;5004824;28;20410;-61
2023/06/06 09:14:51;;;;;;;3.85;2.33;;;22.40;55.00;;;;;;5006819;28;20038;-61
2023/06/06 09:17:17;;;;;;;2.40;2.20;;;22.50;54.80;;;;;;5006776;28;20104;-61
2023/06/06 09:19:46;;;;;;;5.07;2.47;;;22.60;54.40;;;;;;5005883;28;20556;-62
2023/06/06 09:22:11;;;;;;;3.25;2.35;;;22.70;53.40;;;;;;5006850;28;20114;-60
2023/06/06 09:24:44;;;;;;;2.78;2.50;;;22.80;53.00;;;;;;5006924;28;20524;-61
2023/06/06 09:27:29;;;;;;;3.33;2.17;;;22.80;51.90;;;;;;5004804;28;20433;-61
2023/06/06 09:29:55;;;;;;;3.80;2.33;;;22.70;52.40;;;;;;5006272;28;20206;-62
2023/06/06 09:32:30;;;;;;;3.17;2.50;;;22.70;52.90;;;;;;5006924;28;20045;-62
2023/06/06 09:35:03;;;;;;;3.65;2.47;;;22.70;52.50;;;;;;5005812;28;20034;-61
2023/06/06 09:37:30;;;;;;;3.03;2.17;;;22.80;52.80;;;;;;5005256;28;20053;-62
2023/06/06 09:40:13;;;;;;;2.53;2.28;;;22.80;53.10;;;;;;5005038;28;20473;-62
2023/06/06 09:42:42;;;;;;;2.72;2.40;;;22.90;52.10;;;;;;5007047;28;20583;-62
2023/06/06 09:45:18;;;;;;;2.55;2.30;;;23.00;52.20;;;;;;5002947;28;20065;-62
2023/06/06 09:47:46;;;;;;;2.95;2.40;;;23.10;51.60;;;;;;5008473;28;20070;-62
2023/06/06 09:50:15;;;;;;;2.70;2.50;;;23.20;51.00;;;;;;5008136;28;20464;-62
2023/06/06 09:52:41;;;;;;;4.55;2.40;;;23.20;51.30;;;;;;5005738;28;20041;-61
2023/06/06 09:55:15;;;;;;;2.63;2.17;;;23.30;51.10;;;;;;5006294;28;20037;-61
2023/06/06 09:57:41;;;;;;;2.92;2.65;;;23.30;51.00;;;;;;5005905;28;20030;-62
2023/06/06 10:00:18;;;;;;;4.57;2.63;;;23.40;50.70;;;;;;5005292;28;20418;-62
2023/06/06 10:02:45;;;;;;;4.32;2.58;;;23.50;51.00;;;;;;5004831;28;20034;-62
2023/06/06 10:05:13;;;;;;;2.97;2.58;;;23.50;51.00;;;;;;5006526;28;20433;-62
2023/06/06 10:07:46;;;;;;;10.82;2.80;;;23.60;50.80;;;;;;5006133;28;20053;-62
2023/06/06 10:10:14;;;;;;;4.15;2.50;;;23.70;50.00;;;;;;5006440;28;20608;-62
2023/06/06 10:12:41;;;;;;;2.53;2.28;;;23.80;50.30;;;;;;5004683;28;20048;-62
2023/06/06 10:15:11;;;;;;;3.15;2.60;;;23.80;50.50;;;;;;5001991;28;20048;-62
2023/06/06 10:17:39;;;;;;;3.55;2.67;;;23.90;49.90;;;;;;5005501;28;20038;-62
2023/06/06 10:20:06;;;;;;;3.97;2.63;;;24.00;50.00;;;;;;5004373;28;20045;-62
2023/06/06 10:22:34;;;;;;;6.82;3.10;;;24.00;49.30;;;;;;5005141;28;20065;-62
2023/06/06 10:25:02;;;;;;;2.83;2.45;;;24.00;49.80;;;;;;5006582;28;20041;-62
2023/06/06 10:27:50;;;;;;;3.13;2.92;;;24.00;50.20;;;;;;5006728;28;20034;-62
2023/06/06 10:30:37;;;;;;;2.60;2.35;;;24.10;50.00;;;;;;5005937;28;20188;-62
2023/06/06 10:33:14;;;;;;;3.75;2.42;;;24.10;49.40;;;;;;5006639;28;20797;-61
2023/06/06 10:35:43;;;;;;;4.05;2.88;;;24.30;49.80;;;;;;5006239;28;20232;-62
2023/06/06 10:38:09;;;;;;;3.35;2.50;;;24.40;49.90;;;;;;5005450;28;20407;-62
2023/06/06 10:40:50;;;;;;;3.60;2.63;;;24.40;49.90;;;;;;5004492;28;20437;-62
2023/06/06 10:43:19;;;;;;;2.80;2.60;;;24.60;49.30;;;;;;5006284;28;20532;-62
2023/06/06 10:45:49;;;;;;;5.07;2.83;;;24.70;49.10;;;;;;5001277;28;20037;-61
2023/06/06 10:48:14;;;;;;;3.92;2.25;;;24.70;48.50;;;;;;4999910;28;20045;-62
2023/06/06 10:50:53;;;;;;;4.55;2.80;;;24.80;48.60;;;;;;4999334;28;20744;-62
2023/06/06 10:53:19;;;;;;;2.70;2.47;;;24.80;47.90;;;;;;5002161;28;20108;-62
2023/06/06 10:55:45;;;;;;;2.55;2.33;;;24.90;48.50;;;;;;5001118;28;20349;-62
2023/06/06 10:58:18;;;;;;;2.35;2.05;;;25.00;48.10;;;;;;5006732;28;20052;-61
2023/06/06 11:00:46;;;;;;;2.85;2.25;;;25.00;47.70;;;;;;5005728;28;20038;-62
2023/06/06 11:03:15;;;;;;;2.80;2.60;;;25.10;47.80;;;;;;4983427;28;20041;-62
2023/06/06 11:05:59;;;;;;;2.17;2.08;;;25.20;47.50;;;;;;4988120;28;20045;-62
2023/06/06 11:08:36;;;;;;;5.13;2.40;;;25.20;46.20;;;;;;4996256;28;20114;-63
2023/06/06 11:11:30;;;;;;;3.25;2.33;;;25.20;46.20;;;;;;5003599;28;20285;-63
2023/06/06 11:13:59;;;;;;;3.95;2.28;;;25.20;46.50;;;;;;5002028;28;20477;-62
2023/06/06 11:16:50;;;;;;;3.20;2.30;;;25.10;47.20;;;;;;4996336;28;20037;-62
2023/06/06 11:19:21;;;;;;;2.60;2.40;;;25.20;47.10;;;;;;5002710;28;20038;-61
2023/06/06 11:21:50;;;;;;;3.30;2.30;;;25.30;47.20;;;;;;5007210;28;20061;-62
2023/06/06 11:24:18;;;;;;;3.28;2.50;;;25.30;46.70;;;;;;5007612;28;20041;-63
2023/06/06 11:26:44;;;;;;;2.50;2.30;;;25.40;46.10;;;;;;4992737;28;20065;-62
2023/06/06 11:29:11;;;;;;;5.72;2.90;;;25.40;46.70;;;;;;4999112;28;20404;-62
2023/06/06 11:31:40;;;;;;;3.65;2.40;;;25.40;46.40;;;;;;4997153;28;20045;-61
2023/06/06 11:34:10;;;;;;;2.53;2.20;;;25.40;46.20;;;;;;5001697;28;20037;-62
2023/06/06 11:36:37;;;;;;;4.95;2.38;;;25.50;46.30;;;;;;4997565;28;20466;-62
2023/06/06 11:39:05;;;;;;;4.55;2.13;;;25.50;46.10;;;;;;5000138;28;20405;-61
2023/06/06 11:41:35;;;;;;;4.43;2.10;;;25.60;46.20;;;;;;5002325;28;20045;-63
2023/06/06 11:44:02;;;;;;;12.05;2.45;;;25.60;46.60;;;;;;4992968;28;20476;-63
2023/06/06 11:46:29;;;;;;;3.63;2.03;;;25.70;46.10;;;;;;4999161;28;20153;-63
2023/06/06 11:48:58;;;;;;;2.20;2.05;;;25.80;45.60;;;;;;4993561;28;20042;-63
2023/06/06 11:51:25;;;;;;;3.97;2.05;;;25.90;45.20;;;;;;5000267;28;20046;-62
2023/06/06 11:53:51;;;;;;;2.30;2.10;;;26.00;45.20;;;;;;5001312;28;20041;-61
2023/06/06 11:56:17;;;;;;;3.25;2.40;;;26.00;44.40;;;;;;5002269;28;20651;-63
2023/06/06 11:58:43;;;;;;;2.15;1.95;;;26.00;43.20;;;;;;4998331;28;20034;-63
2023/06/06 12:01:10;;;;;;;2.25;2.05;;;25.90;43.40;;;;;;4995086;28;20436;-63
2023/06/06 12:03:43;;;;;;;4.88;2.15;;;25.90;43.20;;;;;;5002150;28;20030;-63
2023/06/06 12:06:09;;;;;;;2.33;2.05;;;25.90;43.20;;;;;;5000516;28;20026;-62
2023/06/06 12:08:36;;;;;;;5.20;2.55;;;25.80;43.60;;;;;;5005855;28;20252;-62
2023/06/06 12:11:29;;;;;;;2.88;2.50;;;25.80;43.70;;;;;;5006429;28;20041;-63
2023/06/06 12:13:57;;;;;;;3.20;2.28;;;25.70;42.50;;;;;;5008890;28;20045;-62
2023/06/06 12:16:27;;;;;;;3.92;2.42;;;25.60;42.00;;;;;;5008237;28;20048;-63
2023/06/06 12:18:56;;;;;;;2.40;2.20;;;25.60;41.60;;;;;;5007579;28;20125;-62
2023/06/06 12:21:23;;;;;;;2.63;2.17;;;25.60;41.80;;;;;;5008179;28;20065;-62
2023/06/06 12:23:49;;;;;;;2.53;1.95;;;25.50;41.20;;;;;;5008441;28;20080;-62
2023/06/06 12:26:16;;;;;;;2.40;2.20;;;25.50;41.90;;;;;;5009060;28;20038;-62
2023/06/06 12:29:01;;;;;;;2.67;2.10;;;25.60;41.70;;;;;;5007956;28;20398;-62
2023/06/06 12:31:30;;;;;;;3.70;2.40;;;25.60;41.50;;;;;;5008521;28;20060;-62
2023/06/06 12:33:58;;;;;;;5.57;2.28;;;25.80;41.90;;;;;;5008768;28;20038;-62
2023/06/06 12:36:26;;;;;;;1.90;1.80;;;25.80;41.20;;;;;;5008303;28;20042;-63
2023/06/06 12:39:07;;;;;;;4.03;2.33;;;25.90;41.60;;;;;;5007294;28;20120;-62
2023/06/06 12:41:40;;;;;;;2.50;2.30;;;26.00;40.70;;;;;;5009239;28;20038;-61
2023/06/06 12:44:08;;;;;;;7.75;2.13;;;26.00;40.90;;;;;;5008557;28;20052;-62
2023/06/06 12:46:37;;;;;;;3.65;2.30;;;25.90;40.70;;;;;;5008104;28;20062;-62
2023/06/06 12:49:03;;;;;;;2.55;2.30;;;25.90;40.80;;;;;;5008171;28;20136;-62